Time;durP1;ratioP1;P1;durP2;ratioP2;P2;SDS_P1;SDS_P2;PMS_P1;PMS_P2;Temp;Humidity;BMP_temperature;BMP_pressure;BME280_temperature;BME280_humidity;BME280_pressure;Samples;Min_cycle;Max_cycle;Signal;HPM_P1;HPM_P2
2021/08/05 00:00:41;;;;;;;15.55;13.95;;;17.50;77.70;;;;;;5093701;28;20108;-88
2021/08/05 00:03:09;;;;;;;16.05;13.32;;;17.50;77.70;;;;;;5093762;28;20048;-90
2021/08/05 00:05:37;;;;;;;19.27;14.02;;;17.50;77.70;;;;;;5095530;28;20139;-88
2021/08/05 00:08:04;;;;;;;17.00;13.93;;;17.50;77.70;;;;;;5093809;28;20502;-88
2021/08/05 00:10:33;;;;;;;14.80;13.27;;;17.50;77.80;;;;;;5093414;28;20048;-89
2021/08/05 00:12:59;;;;;;;14.68;12.65;;;17.50;77.80;;;;;;5093231;28;20067;-90
2021/08/05 00:15:26;;;;;;;13.90;12.40;;;17.50;77.80;;;;;;5093552;28;20463;-89
2021/08/05 00:17:53;;;;;;;22.77;11.48;;;17.50;77.90;;;;;;5092277;28;20048;-88
2021/08/05 00:20:21;;;;;;;13.15;11.70;;;17.50;77.90;;;;;;5095143;28;20052;-89
2021/08/05 00:22:48;;;;;;;14.80;11.75;;;17.40;77.90;;;;;;5090352;28;20048;-89
2021/08/05 00:25:15;;;;;;;13.50;11.88;;;17.50;78.00;;;;;;5091906;28;20055;-89
2021/08/05 00:27:42;;;;;;;16.02;12.40;;;17.40;78.00;;;;;;5093207;28;20101;-90
2021/08/05 00:30:10;;;;;;;14.35;12.13;;;17.40;78.00;;;;;;5093085;28;20053;-88
2021/08/05 00:32:37;;;;;;;14.30;12.80;;;17.40;78.00;;;;;;5094028;28;20056;-88
2021/08/05 00:35:05;;;;;;;14.48;12.15;;;17.40;78.10;;;;;;5090492;28;20047;-88
2021/08/05 00:37:32;;;;;;;13.85;11.13;;;17.40;78.10;;;;;;5092889;28;20052;-88
2021/08/05 00:39:59;;;;;;;16.75;13.20;;;17.40;78.10;;;;;;5092782;28;20052;-90
2021/08/05 00:42:26;;;;;;;17.27;12.93;;;17.40;78.10;;;;;;5091963;28;20097;-88
2021/08/05 00:44:53;;;;;;;17.85;11.70;;;17.40;78.10;;;;;;5092623;28;20052;-88
2021/08/05 00:47:19;;;;;;;14.77;11.20;;;17.40;78.10;;;;;;5093221;28;20044;-88
2021/08/05 00:49:46;;;;;;;16.88;12.40;;;17.40;78.10;;;;;;5120572;27;20464;-91
2021/08/05 00:52:14;;;;;;;13.52;10.73;;;17.40;78.10;;;;;;5092031;28;20048;-88
2021/08/05 00:54:40;;;;;;;14.90;12.77;;;17.40;78.20;;;;;;5092663;28;20117;-90
2021/08/05 00:57:08;;;;;;;18.23;15.48;;;17.40;78.20;;;;;;5092909;28;20036;-90
2021/08/05 00:59:35;;;;;;;14.88;13.27;;;17.30;78.30;;;;;;5090723;28;20052;-89
2021/08/05 01:02:10;;;;;;;14.50;12.57;;;17.30;78.20;;;;;;5092444;28;20048;-90
2021/08/05 01:04:37;;;;;;;13.93;12.43;;;17.30;78.20;;;;;;5092220;28;20052;-89
2021/08/05 01:07:22;;;;;;;14.40;12.95;;;17.20;78.30;;;;;;5092577;28;20040;-90
2021/08/05 01:09:59;;;;;;;14.27;11.15;;;17.20;78.30;;;;;;5092452;28;20040;-89
2021/08/05 01:13:03;;;;;;;15.07;13.27;;;17.20;78.30;;;;;;5091213;28;20082;-89
2021/08/05 01:15:31;;;;;;;16.50;12.13;;;17.20;78.30;;;;;;5079697;28;20402;-89
2021/08/05 01:18:05;;;;;;;14.18;11.15;;;17.20;78.30;;;;;;5092251;28;20056;-90
2021/08/05 01:20:32;;;;;;;11.43;10.07;;;17.10;78.20;;;;;;5093116;28;20052;-89
2021/08/05 01:23:36;;;;;;;14.25;12.85;;;17.10;78.20;;;;;;5092120;28;20052;-89
2021/08/05 01:26:12;;;;;;;13.00;11.63;;;17.10;78.30;;;;;;5089434;28;20044;-88
2021/08/05 01:28:42;;;;;;;12.65;9.95;;;17.00;78.30;;;;;;5091854;28;20048;-89
2021/08/05 01:31:10;;;;;;;14.35;11.23;;;17.00;78.30;;;;;;5091854;28;20052;-88
2021/08/05 01:33:38;;;;;;;14.75;11.30;;;17.00;78.30;;;;;;5090719;28;20056;-89
2021/08/05 01:36:05;;;;;;;17.30;12.32;;;17.00;78.30;;;;;;5073382;28;20053;-89
2021/08/05 01:38:34;;;;;;;16.13;10.95;;;16.90;78.30;;;;;;5106150;28;20044;-90
2021/08/05 01:41:06;;;;;;;11.85;10.45;;;16.90;78.40;;;;;;5088917;28;20097;-89
2021/08/05 01:43:35;;;;;;;15.48;12.65;;;16.90;78.40;;;;;;5091844;28;20044;-88
2021/08/05 01:46:03;;;;;;;14.20;12.70;;;16.90;78.40;;;;;;5091319;28;20036;-88
2021/08/05 01:48:32;;;;;;;13.90;11.48;;;16.90;78.40;;;;;;5091693;28;20532;-88
2021/08/05 01:51:00;;;;;;;15.48;12.25;;;16.90;78.40;;;;;;5091568;28;20060;-89
2021/08/05 01:53:28;;;;;;;19.88;13.52;;;16.90;78.50;;;;;;5093791;28;20052;-88
2021/08/05 01:55:55;;;;;;;19.10;12.80;;;16.90;78.50;;;;;;5091422;28;20464;-89
2021/08/05 01:58:22;;;;;;;15.95;14.23;;;16.90;78.60;;;;;;5090209;28;20051;-88
2021/08/05 02:00:49;;;;;;;14.90;13.30;;;16.90;78.60;;;;;;5119195;27;20465;-90
2021/08/05 02:03:16;;;;;;;15.50;13.02;;;16.90;78.50;;;;;;5090072;28;20090;-88
2021/08/05 02:06:07;;;;;;;16.00;12.10;;;16.80;78.40;;;;;;5092169;28;20063;-89
2021/08/05 02:08:58;;;;;;;12.70;10.98;;;16.90;78.40;;;;;;5087883;28;20048;-87
2021/08/05 02:11:27;;;;;;;21.10;17.05;;;16.80;78.20;;;;;;5092205;28;20060;-88
2021/08/05 02:13:56;;;;;;;18.00;14.13;;;16.80;78.30;;;;;;5090959;28;20056;-88
2021/08/05 02:16:25;;;;;;;16.48;14.68;;;16.70;78.40;;;;;;5090679;28;20036;-89
2021/08/05 02:18:53;;;;;;;18.25;16.20;;;16.70;78.40;;;;;;5089661;28;20051;-88
2021/08/05 02:21:23;;;;;;;17.50;15.20;;;16.60;78.40;;;;;;5089772;28;20044;-88
2021/08/05 02:23:58;;;;;;;19.15;16.83;;;16.60;78.40;;;;;;5091635;28;20048;-89
2021/08/05 02:26:27;;;;;;;17.95;16.10;;;16.60;78.30;;;;;;5091955;28;20060;-88
2021/08/05 02:28:54;;;;;;;19.38;15.07;;;16.60;78.30;;;;;;5090871;28;20076;-88
2021/08/05 02:31:21;;;;;;;17.80;15.55;;;16.50;78.30;;;;;;5090304;28;20048;-89
2021/08/05 02:33:50;;;;;;;19.23;16.95;;;16.50;78.30;;;;;;5090989;28;20110;-88
2021/08/05 02:36:18;;;;;;;19.40;15.32;;;16.50;78.20;;;;;;5090977;28;20044;-88
2021/08/05 02:38:45;;;;;;;17.70;15.90;;;16.40;78.20;;;;;;5090827;28;20105;-88
2021/08/05 02:41:13;;;;;;;19.20;15.88;;;16.40;78.20;;;;;;5091912;28;20048;-88
2021/08/05 02:43:41;;;;;;;16.65;14.60;;;16.40;78.20;;;;;;5090511;28;20524;-88
2021/08/05 02:46:08;;;;;;;17.42;14.73;;;16.40;78.30;;;;;;5090205;28;20471;-88
2021/08/05 02:48:36;;;;;;;21.70;16.25;;;16.30;78.50;;;;;;5090629;28;20106;-88
2021/08/05 02:51:04;;;;;;;17.00;13.23;;;16.30;78.40;;;;;;5090422;28;20429;-88
2021/08/05 02:53:32;;;;;;;16.35;14.48;;;16.30;78.30;;;;;;5092669;28;20048;-89
2021/08/05 02:55:59;;;;;;;16.88;15.13;;;16.30;78.20;;;;;;5088779;28;20044;-88
2021/08/05 02:58:28;;;;;;;19.30;16.70;;;16.20;78.10;;;;;;5088766;28;20048;-88
2021/08/05 03:00:55;;;;;;;21.98;15.43;;;16.20;78.00;;;;;;5090451;28;20044;-88
2021/08/05 03:03:23;;;;;;;16.42;14.35;;;16.20;78.00;;;;;;5090427;28;20101;-88
2021/08/05 03:05:55;;;;;;;19.40;16.55;;;16.20;78.00;;;;;;5090920;28;20044;-88
2021/08/05 03:08:23;;;;;;;17.50;15.63;;;16.10;78.00;;;;;;5090867;28;20046;-88
2021/08/05 03:10:50;;;;;;;16.58;14.88;;;16.10;77.90;;;;;;5090214;28;20093;-88
2021/08/05 03:13:17;;;;;;;22.02;17.27;;;16.00;77.80;;;;;;5089576;28;20077;-88
2021/08/05 03:15:44;;;;;;;20.15;16.77;;;16.00;77.70;;;;;;5090181;28;20139;-88
2021/08/05 03:18:10;;;;;;;21.48;16.40;;;16.00;77.60;;;;;;5090114;28;20052;-88
2021/08/05 03:20:40;;;;;;;18.67;16.48;;;16.00;77.50;;;;;;5091701;28;20052;-88
2021/08/05 03:23:07;;;;;;;17.40;15.40;;;15.90;77.60;;;;;;5089544;28;20048;-87
2021/08/05 03:25:34;;;;;;;20.13;18.02;;;15.90;77.60;;;;;;5090031;28;20043;-88
2021/08/05 03:28:01;;;;;;;23.02;19.17;;;15.90;77.50;;;;;;5088567;28;20048;-89
2021/08/05 03:30:27;;;;;;;17.63;15.75;;;15.80;77.60;;;;;;5090137;28;20044;-88
2021/08/05 03:32:54;;;;;;;20.90;17.83;;;15.80;77.80;;;;;;5090029;28;20048;-88
2021/08/05 03:35:21;;;;;;;20.27;14.60;;;15.80;77.90;;;;;;5090985;28;20093;-87
2021/08/05 03:37:48;;;;;;;16.67;14.90;;;15.80;77.80;;;;;;5088643;28;20052;-87
2021/08/05 03:40:15;;;;;;;22.50;15.60;;;15.70;77.80;;;;;;5089921;28;20040;-87
2021/08/05 03:42:42;;;;;;;17.05;13.05;;;15.70;77.70;;;;;;5089415;28;20055;-87
2021/08/05 03:45:09;;;;;;;17.55;15.40;;;15.70;77.70;;;;;;5089979;28;20040;-86
2021/08/05 03:47:36;;;;;;;19.08;17.13;;;15.60;77.70;;;;;;5092234;28;20051;-88
2021/08/05 03:50:05;;;;;;;19.15;17.00;;;15.60;77.70;;;;;;5087319;28;20048;-87
2021/08/05 03:52:32;;;;;;;17.08;14.90;;;15.60;77.80;;;;;;5088577;28;20044;-87
2021/08/05 03:55:03;;;;;;;19.60;16.67;;;15.60;77.80;;;;;;5089676;28;20489;-87
2021/08/05 03:57:30;;;;;;;19.02;16.80;;;15.50;77.70;;;;;;5089596;28;20312;-87
2021/08/05 03:59:57;;;;;;;17.60;15.70;;;15.50;77.70;;;;;;5090263;28;20048;-87
2021/08/05 04:02:24;;;;;;;21.42;17.65;;;15.50;77.60;;;;;;5090563;28;20502;-87
2021/08/05 04:04:51;;;;;;;17.90;14.25;;;15.40;77.50;;;;;;5088656;28;20055;-87
2021/08/05 04:07:18;;;;;;;18.88;16.60;;;15.40;77.50;;;;;;5089587;28;20044;-87
2021/08/05 04:09:46;;;;;;;19.27;17.23;;;15.40;77.50;;;;;;5089712;28;20044;-87
2021/08/05 04:12:13;;;;;;;19.25;14.68;;;15.40;77.70;;;;;;5089303;28;20072;-87
2021/08/05 04:14:40;;;;;;;18.05;15.68;;;15.40;77.80;;;;;;5091341;28;20164;-87
2021/08/05 04:17:07;;;;;;;22.95;16.40;;;15.30;77.80;;;;;;5087851;28;20083;-88
2021/08/05 04:19:33;;;;;;;17.42;15.63;;;15.30;77.80;;;;;;5089510;28;20040;-86
2021/08/05 04:22:01;;;;;;;20.10;17.73;;;15.30;77.70;;;;;;5089513;28;20521;-86
2021/08/05 04:24:27;;;;;;;19.77;16.40;;;15.30;77.80;;;;;;5089714;28;20410;-87
2021/08/05 04:26:54;;;;;;;20.02;17.20;;;15.20;77.70;;;;;;5089288;28;20052;-87
2021/08/05 04:29:21;;;;;;;20.13;16.95;;;15.20;77.60;;;;;;5094757;28;20048;-88
2021/08/05 04:31:48;;;;;;;17.83;15.93;;;15.20;77.50;;;;;;5091724;28;20125;-87
2021/08/05 04:34:15;;;;;;;21.80;15.82;;;15.20;77.50;;;;;;5090729;28;20044;-87
2021/08/05 04:36:44;;;;;;;17.60;15.73;;;15.10;77.40;;;;;;5092924;28;20097;-87
2021/08/05 04:39:11;;;;;;;19.55;17.25;;;15.10;77.50;;;;;;5091995;28;20536;-87
2021/08/05 04:41:37;;;;;;;20.35;17.55;;;15.10;77.70;;;;;;5094790;28;20497;-87
2021/08/05 04:44:05;;;;;;;22.80;15.93;;;15.00;77.70;;;;;;5090515;28;20395;-86
2021/08/05 04:46:32;;;;;;;24.75;17.42;;;15.00;77.70;;;;;;5092801;28;20051;-88
2021/08/05 04:49:00;;;;;;;18.55;16.23;;;15.00;77.70;;;;;;5092873;28;20051;-87
2021/08/05 04:51:31;;;;;;;19.83;17.73;;;15.00;77.80;;;;;;5092733;28;20140;-88
2021/08/05 04:54:00;;;;;;;21.15;17.63;;;15.00;77.80;;;;;;5092772;28;20066;-86
2021/08/05 04:56:27;;;;;;;15.80;14.10;;;14.90;77.90;;;;;;5093523;28;20053;-86
2021/08/05 04:58:54;;;;;;;20.88;17.88;;;15.00;78.10;;;;;;5091474;28;20048;-87
2021/08/05 05:01:21;;;;;;;19.60;16.90;;;14.90;78.30;;;;;;5092571;28;20048;-87
2021/08/05 05:03:49;;;;;;;22.60;18.38;;;14.90;78.40;;;;;;5092457;28;20580;-87
2021/08/05 05:06:17;;;;;;;20.13;17.02;;;14.90;78.60;;;;;;5092602;28;20040;-86
2021/08/05 05:08:43;;;;;;;24.33;19.67;;;15.00;78.70;;;;;;5093787;28;20109;-86
2021/08/05 05:11:11;;;;;;;22.20;18.35;;;14.90;78.80;;;;;;5091034;28;20051;-87
2021/08/05 05:13:38;;;;;;;24.13;20.17;;;15.00;78.80;;;;;;5092122;28;20056;-87
2021/08/05 05:16:05;;;;;;;22.65;19.55;;;15.00;78.80;;;;;;5090792;28;20089;-87
2021/08/05 05:18:32;;;;;;;20.38;18.00;;;15.00;79.00;;;;;;5089792;28;20044;-87
2021/08/05 05:20:59;;;;;;;21.83;17.88;;;15.00;79.10;;;;;;5092239;28;20067;-87
2021/08/05 05:23:26;;;;;;;24.10;20.13;;;15.00;79.30;;;;;;5093918;28;20048;-86
2021/08/05 05:25:53;;;;;;;24.02;19.42;;;15.00;79.40;;;;;;5092077;28;20040;-87
2021/08/05 05:28:20;;;;;;;23.55;20.42;;;15.00;79.60;;;;;;5090169;28;20040;-87
2021/08/05 05:30:47;;;;;;;23.85;21.30;;;15.00;79.70;;;;;;5091903;28;20056;-88
2021/08/05 05:33:14;;;;;;;21.92;18.95;;;15.00;79.80;;;;;;5091921;28;20505;-87
2021/08/05 05:35:42;;;;;;;24.95;22.27;;;15.00;80.00;;;;;;5093666;28;20093;-88
2021/08/05 05:38:10;;;;;;;32.85;23.92;;;15.10;80.10;;;;;;5092245;28;20497;-87
2021/08/05 05:40:38;;;;;;;23.42;20.27;;;15.10;80.20;;;;;;5091627;28;20048;-88
2021/08/05 05:43:06;;;;;;;28.30;23.58;;;15.10;80.30;;;;;;5092733;28;20048;-87
2021/08/05 05:45:33;;;;;;;19.50;16.85;;;15.10;80.40;;;;;;5091861;28;20044;-87
2021/08/05 05:48:01;;;;;;;30.27;22.02;;;15.20;80.50;;;;;;5090572;28;20105;-88
2021/08/05 05:50:30;;;;;;;29.08;23.23;;;15.20;80.60;;;;;;5093936;28;20121;-87
2021/08/05 05:52:58;;;;;;;24.83;21.90;;;15.30;80.70;;;;;;5091091;28;20048;-88
2021/08/05 05:55:25;;;;;;;25.15;22.33;;;15.30;80.70;;;;;;5091313;28;20051;-88
2021/08/05 05:57:53;;;;;;;25.35;21.70;;;15.40;80.70;;;;;;5092586;28;20048;-88
2021/08/05 06:00:20;;;;;;;26.48;23.63;;;15.40;80.80;;;;;;5091817;28;20048;-88
2021/08/05 06:02:47;;;;;;;33.33;26.20;;;15.50;80.80;;;;;;5091085;28;20051;-88
2021/08/05 06:05:15;;;;;;;32.20;25.13;;;15.50;80.90;;;;;;5092997;28;20048;-89
2021/08/05 06:07:50;;;;;;;34.13;25.40;;;15.60;81.00;;;;;;5090945;28;20105;-89
2021/08/05 06:10:20;;;;;;;32.50;24.48;;;15.70;81.10;;;;;;5089222;28;20044;-87
2021/08/05 06:12:47;;;;;;;33.95;27.83;;;15.70;81.30;;;;;;5091941;28;20059;-89
2021/08/05 06:15:15;;;;;;;34.45;28.65;;;15.80;81.30;;;;;;5089228;28;20059;-88
2021/08/05 06:17:43;;;;;;;29.88;25.77;;;15.90;81.50;;;;;;5091375;28;20406;-88
2021/08/05 06:20:13;;;;;;;32.50;26.90;;;15.90;81.50;;;;;;5090159;28;20044;-89
2021/08/05 06:22:42;;;;;;;32.40;24.25;;;15.90;81.60;;;;;;5085392;28;20113;-88
2021/08/05 06:25:10;;;;;;;29.58;26.33;;;16.00;81.60;;;;;;5089948;28;20044;-89
2021/08/05 06:27:37;;;;;;;38.10;29.30;;;16.10;81.70;;;;;;5085354;28;20056;-89
2021/08/05 06:30:06;;;;;;;30.02;26.05;;;16.10;81.80;;;;;;5090896;28;20047;-88
2021/08/05 06:32:33;;;;;;;36.92;26.45;;;16.20;81.90;;;;;;5093105;28;20051;-89
2021/08/05 06:35:00;;;;;;;27.63;21.83;;;16.30;81.90;;;;;;5092063;28;20102;-87
2021/08/05 06:37:27;;;;;;;33.33;26.65;;;16.40;81.90;;;;;;5091494;28;20044;-88
2021/08/05 06:39:55;;;;;;;38.95;30.85;;;16.40;81.90;;;;;;5084959;28;20052;-88
2021/08/05 06:42:22;;;;;;;41.92;29.60;;;16.40;81.90;;;;;;5088330;28;20053;-91
2021/08/05 06:44:49;;;;;;;25.38;20.58;;;16.50;81.90;;;;;;5091892;28;20056;-90
2021/08/05 06:47:16;;;;;;;23.50;19.35;;;16.60;81.90;;;;;;5072004;28;20047;-91
2021/08/05 06:49:43;;;;;;;32.05;27.13;;;16.60;81.90;;;;;;5090001;28;20067;-90
2021/08/05 06:52:11;;;;;;;33.55;26.98;;;16.70;81.80;;;;;;5090270;28;20055;-90
2021/08/05 06:54:38;;;;;;;30.58;27.35;;;16.70;81.80;;;;;;5092011;28;20052;-90
2021/08/05 06:57:05;;;;;;;35.17;28.45;;;16.80;81.90;;;;;;5091032;28;20048;-90
2021/08/05 06:59:32;;;;;;;32.95;26.40;;;16.90;81.90;;;;;;5092050;28;20051;-90
2021/08/05 07:02:00;;;;;;;39.33;28.25;;;16.90;81.80;;;;;;5116345;27;20048;-90
2021/08/05 07:04:27;;;;;;;32.08;27.23;;;17.00;81.70;;;;;;5115466;27;20139;-89
2021/08/05 07:06:54;;;;;;;39.25;28.65;;;17.00;81.70;;;;;;5113229;27;20048;-90
2021/08/05 07:09:21;;;;;;;36.08;28.30;;;17.00;81.70;;;;;;5091003;28;20039;-89
2021/08/05 07:11:48;;;;;;;30.90;27.60;;;17.10;81.70;;;;;;5092848;28;20051;-89
2021/08/05 07:14:15;;;;;;;30.48;25.02;;;17.20;81.60;;;;;;5092225;28;20060;-89
2021/08/05 07:16:42;;;;;;;28.35;25.35;;;17.20;81.50;;;;;;5116666;28;20048;-90
2021/08/05 07:19:09;;;;;;;29.13;26.02;;;17.30;81.40;;;;;;5081858;28;20516;-89
2021/08/05 07:21:36;;;;;;;29.67;26.10;;;17.40;81.20;;;;;;5121648;28;20129;-90
2021/08/05 07:24:03;;;;;;;32.03;24.55;;;17.40;81.10;;;;;;5093016;28;20444;-89
2021/08/05 07:26:30;;;;;;;30.60;24.20;;;17.50;81.00;;;;;;5091575;28;20059;-89
2021/08/05 07:28:57;;;;;;;26.67;23.33;;;17.60;80.90;;;;;;5090770;28;20082;-89
2021/08/05 07:31:24;;;;;;;28.85;22.73;;;17.70;80.70;;;;;;5089338;28;20501;-89
2021/08/05 07:33:54;;;;;;;32.00;24.90;;;17.80;80.50;;;;;;5117807;28;20170;-90
2021/08/05 07:36:22;;;;;;;21.33;18.27;;;17.80;80.40;;;;;;5083456;28;20048;-88
2021/08/05 07:38:50;;;;;;;24.08;21.50;;;17.90;80.20;;;;;;5083913;28;20070;-88
2021/08/05 07:41:18;;;;;;;31.02;23.45;;;17.90;80.10;;;;;;5090193;28;20502;-89
2021/08/05 07:43:45;;;;;;;25.42;21.33;;;18.00;80.00;;;;;;5082807;28;20460;-88
2021/08/05 07:46:13;;;;;;;28.10;23.92;;;18.10;79.90;;;;;;5088350;28;20051;-89
2021/08/05 07:48:40;;;;;;;23.95;20.48;;;18.20;79.80;;;;;;5075666;28;20105;-90
2021/08/05 07:51:07;;;;;;;38.40;20.75;;;18.20;79.70;;;;;;5071661;28;20099;-89
2021/08/05 07:53:34;;;;;;;27.42;22.58;;;18.30;79.50;;;;;;5104066;28;20048;-90
2021/08/05 07:56:01;;;;;;;25.75;21.35;;;18.40;79.30;;;;;;5087340;28;20077;-89
2021/08/05 07:58:28;;;;;;;28.10;19.35;;;18.40;79.40;;;;;;5083976;28;20455;-89
2021/08/05 08:00:55;;;;;;;21.63;17.77;;;18.50;79.30;;;;;;5078407;28;20064;-88
2021/08/05 08:03:22;;;;;;;20.02;17.88;;;18.60;78.90;;;;;;5088847;28;20048;-89
2021/08/05 08:05:49;;;;;;;23.17;18.67;;;18.60;78.40;;;;;;5093020;28;20052;-89
2021/08/05 08:08:17;;;;;;;19.63;16.10;;;18.70;78.20;;;;;;5123868;27;20052;-89
2021/08/05 08:10:44;;;;;;;22.85;16.30;;;18.70;77.90;;;;;;5089325;28;20102;-89
2021/08/05 08:13:25;;;;;;;19.65;16.40;;;18.90;77.70;;;;;;5084700;28;20060;-89
2021/08/05 08:15:53;;;;;;;21.02;17.40;;;18.90;77.60;;;;;;5092050;28;20444;-89
2021/08/05 08:18:20;;;;;;;17.13;14.70;;;18.90;77.40;;;;;;5091317;28;20048;-89
2021/08/05 08:20:48;;;;;;;18.13;13.50;;;19.00;77.20;;;;;;5093731;28;20055;-89
2021/08/05 08:23:15;;;;;;;15.40;13.25;;;19.00;77.00;;;;;;5089551;28;20040;-90
2021/08/05 08:25:41;;;;;;;20.27;17.15;;;19.10;76.90;;;;;;5093156;28;20062;-89
2021/08/05 08:28:09;;;;;;;19.27;15.75;;;19.20;76.80;;;;;;5089466;28;20078;-89
2021/08/05 08:30:36;;;;;;;19.67;14.15;;;19.20;76.80;;;;;;5082705;28;20044;-89
2021/08/05 08:33:03;;;;;;;18.98;16.00;;;19.30;76.70;;;;;;5108420;27;20036;-88
2021/08/05 08:35:30;;;;;;;16.25;14.52;;;19.40;76.50;;;;;;5074376;28;20102;-88
2021/08/05 08:37:58;;;;;;;17.05;14.75;;;19.40;76.40;;;;;;5085686;28;20056;-88
2021/08/05 08:40:25;;;;;;;15.85;13.70;;;19.50;76.00;;;;;;5084593;28;20498;-87
2021/08/05 08:42:52;;;;;;;18.17;13.35;;;19.60;75.50;;;;;;5082410;28;20534;-88
2021/08/05 08:45:19;;;;;;;21.83;13.07;;;19.70;75.40;;;;;;5091762;28;20044;-87
2021/08/05 08:47:52;;;;;;;17.35;12.57;;;19.80;75.20;;;;;;5074114;28;20213;-87
2021/08/05 08:50:28;;;;;;;14.25;11.95;;;19.90;75.00;;;;;;5081281;28;20103;-86
2021/08/05 08:53:03;;;;;;;24.83;12.45;;;19.90;74.70;;;;;;5081600;28;20068;-91
2021/08/05 08:55:33;;;;;;;13.25;11.45;;;20.00;74.40;;;;;;5087605;28;20044;-89
2021/08/05 08:58:04;;;;;;;15.02;12.13;;;20.10;73.70;;;;;;5090046;28;20044;-88
2021/08/05 09:00:33;;;;;;;16.20;10.85;;;20.20;73.50;;;;;;5076939;28;20049;-89
2021/08/05 09:03:01;;;;;;;12.75;10.88;;;20.20;73.50;;;;;;5075819;28;20089;-88
2021/08/05 09:05:29;;;;;;;17.27;10.32;;;20.30;73.50;;;;;;5112320;27;20049;-87
2021/08/05 09:07:59;;;;;;;27.15;10.48;;;20.40;73.30;;;;;;5075114;28;20071;-88
2021/08/05 09:10:27;;;;;;;16.10;9.68;;;20.40;73.20;;;;;;5110867;27;20127;-87
2021/08/05 09:12:56;;;;;;;13.50;9.02;;;20.50;73.00;;;;;;5080596;28;20047;-87
2021/08/05 09:15:41;;;;;;;13.85;8.43;;;20.60;72.80;;;;;;5072749;28;20121;-86
2021/08/05 09:18:28;;;;;;;24.08;8.80;;;20.70;72.10;;;;;;5076566;28;20048;-88
2021/08/05 09:21:05;;;;;;;13.07;8.40;;;20.80;71.90;;;;;;5090414;28;20456;-87
2021/08/05 09:24:12;;;;;;;15.85;7.38;;;20.90;71.60;;;;;;5077371;28;20580;-89
2021/08/05 09:26:47;;;;;;;10.93;7.10;;;20.90;70.80;;;;;;4975863;28;20050;-88
2021/08/05 09:29:24;;;;;;;17.30;7.63;;;21.10;70.70;;;;;;4976457;28;20050;-89
2021/08/05 09:31:53;;;;;;;17.02;7.43;;;21.10;70.80;;;;;;4975976;28;20073;-89
2021/08/05 09:34:35;;;;;;;13.02;7.13;;;21.30;70.80;;;;;;4977893;28;20046;-88
2021/08/05 09:37:10;;;;;;;10.63;6.80;;;21.40;70.60;;;;;;4991451;28;20050;-87
2021/08/05 09:39:39;;;;;;;10.00;6.47;;;21.60;69.80;;;;;;4977778;28;20057;-89
2021/08/05 09:42:09;;;;;;;12.65;6.88;;;21.80;69.50;;;;;;4991533;28;20146;-88
2021/08/05 09:44:39;;;;;;;10.45;6.95;;;21.90;69.60;;;;;;4992525;28;20062;-90
2021/08/05 09:47:12;;;;;;;9.73;7.05;;;22.10;69.30;;;;;;4992145;28;20050;-86
2021/08/05 09:49:59;;;;;;;9.45;7.30;;;22.30;68.70;;;;;;4991821;28;20058;-86
2021/08/05 09:52:33;;;;;;;8.32;6.25;;;22.40;68.70;;;;;;4976013;28;20053;-86
2021/08/05 09:55:03;;;;;;;12.38;6.50;;;22.70;68.60;;;;;;4991388;28;20058;-86
2021/08/05 09:57:32;;;;;;;9.05;6.50;;;22.90;68.40;;;;;;4990767;28;20062;-86
2021/08/05 10:00:01;;;;;;;21.60;6.13;;;23.00;67.70;;;;;;4991082;28;20714;-86
2021/08/05 10:02:43;;;;;;;7.18;4.40;;;23.20;67.00;;;;;;5046208;28;20056;-87
2021/08/05 10:05:20;;;;;;;8.55;3.97;;;23.30;66.20;;;;;;5078642;28;20101;-87
2021/08/05 10:07:52;;;;;;;14.43;4.47;;;23.40;65.70;;;;;;5082061;28;20161;-85
2021/08/05 10:10:21;;;;;;;8.30;4.63;;;23.50;65.30;;;;;;5086869;28;20456;-83
2021/08/05 10:12:59;;;;;;;13.85;4.30;;;23.40;65.00;;;;;;5091968;28;20044;-88
2021/08/05 10:15:29;;;;;;;8.10;4.40;;;23.50;65.20;;;;;;5086507;28;20517;-86
2021/08/05 10:18:02;;;;;;;9.57;4.32;;;23.60;65.20;;;;;;5087837;28;20052;-87
2021/08/05 10:20:30;;;;;;;11.20;4.82;;;23.60;65.00;;;;;;5093648;28;20044;-87
2021/08/05 10:22:58;;;;;;;9.60;4.38;;;23.70;64.90;;;;;;5089329;28;20056;-87
2021/08/05 10:25:27;;;;;;;6.03;3.53;;;23.80;64.60;;;;;;5083384;28;20044;-87
2021/08/05 10:27:56;;;;;;;12.18;4.00;;;23.80;63.60;;;;;;5077305;28;20051;-86
2021/08/05 10:30:24;;;;;;;5.10;3.47;;;23.80;63.50;;;;;;5073026;28;20040;-86
2021/08/05 10:32:53;;;;;;;6.20;4.20;;;23.80;63.70;;;;;;5089054;28;20048;-86
2021/08/05 10:35:20;;;;;;;7.60;4.05;;;23.80;63.70;;;;;;5075026;28;20509;-86
2021/08/05 10:37:49;;;;;;;7.32;4.22;;;23.90;63.30;;;;;;5076900;28;20048;-86
2021/08/05 10:40:16;;;;;;;14.27;4.22;;;23.90;63.00;;;;;;5078726;28;20498;-86
2021/08/05 10:42:45;;;;;;;7.90;3.63;;;23.90;62.90;;;;;;5077609;28;20047;-88
2021/08/05 10:45:15;;;;;;;8.27;3.88;;;23.90;62.90;;;;;;5072382;28;20044;-87
2021/08/05 10:47:46;;;;;;;7.30;4.13;;;23.90;63.10;;;;;;5088581;28;20060;-87
2021/08/05 10:50:16;;;;;;;8.00;3.80;;;23.90;63.20;;;;;;5079011;28;20052;-87
2021/08/05 10:52:47;;;;;;;8.38;3.80;;;23.90;63.10;;;;;;5080356;28;20441;-87
2021/08/05 10:55:18;;;;;;;9.45;3.85;;;23.80;62.50;;;;;;5079232;28;20048;-85
2021/08/05 10:58:06;;;;;;;7.75;4.28;;;23.70;62.50;;;;;;5076483;28;20040;-88
2021/08/05 11:00:53;;;;;;;6.43;3.72;;;23.60;62.80;;;;;;5091321;28;20052;-87
2021/08/05 11:03:32;;;;;;;6.38;3.70;;;23.60;63.00;;;;;;5088948;28;20072;-85
2021/08/05 11:06:08;;;;;;;7.65;4.20;;;23.60;63.00;;;;;;5087451;28;20087;-86
2021/08/05 11:08:35;;;;;;;6.28;4.32;;;23.70;63.00;;;;;;5071158;28;20107;-89
2021/08/05 11:11:20;;;;;;;6.90;4.15;;;23.70;62.60;;;;;;5077229;28;20460;-86
2021/08/05 11:13:59;;;;;;;7.55;4.15;;;23.70;62.00;;;;;;5081871;28;20063;-88
2021/08/05 11:16:59;;;;;;;13.60;4.88;;;23.70;62.00;;;;;;5086667;28;20067;-90
2021/08/05 11:19:28;;;;;;;9.15;4.00;;;23.80;62.10;;;;;;5077073;28;20127;-87
2021/08/05 11:21:56;;;;;;;8.02;4.57;;;23.80;62.00;;;;;;5091250;28;20502;-89
2021/08/05 11:24:43;;;;;;;18.15;4.70;;;23.90;62.10;;;;;;5086819;28;20049;-87
2021/08/05 11:27:17;;;;;;;6.55;4.32;;;23.90;62.00;;;;;;5069732;28;20514;-87
2021/08/05 11:29:44;;;;;;;6.18;3.63;;;24.00;61.90;;;;;;5087089;28;20056;-89
2021/08/05 11:32:26;;;;;;;5.88;4.15;;;24.00;60.80;;;;;;5104618;28;20110;-86
2021/08/05 11:34:58;;;;;;;7.20;4.80;;;24.10;61.00;;;;;;5070970;28;20498;-87
2021/08/05 11:37:27;;;;;;;7.93;4.30;;;24.20;61.50;;;;;;5081503;28;20510;-87
2021/08/05 11:39:58;;;;;;;9.45;4.78;;;24.30;61.40;;;;;;5091599;28;20472;-90
2021/08/05 11:42:30;;;;;;;10.10;4.60;;;24.40;60.90;;;;;;5090514;28;20454;-88
2021/08/05 11:44:56;;;;;;;18.85;5.30;;;24.60;60.70;;;;;;5101002;28;20047;-88
2021/08/05 11:47:39;;;;;;;8.90;4.50;;;24.70;60.40;;;;;;5095147;28;20048;-87
2021/08/05 11:50:07;;;;;;;7.05;4.03;;;24.80;60.20;;;;;;5086296;28;20059;-88
2021/08/05 11:52:36;;;;;;;6.68;4.25;;;25.00;60.30;;;;;;5094023;28;20440;-89
2021/08/05 11:55:06;;;;;;;10.27;4.10;;;25.10;59.10;;;;;;5089488;28;20101;-88
2021/08/05 11:57:39;;;;;;;13.48;4.00;;;25.10;58.60;;;;;;5080215;28;20056;-86
2021/08/05 12:00:13;;;;;;;5.95;3.50;;;25.20;58.50;;;;;;5077323;28;20115;-87
2021/08/05 12:02:41;;;;;;;6.40;3.38;;;25.30;58.40;;;;;;5086783;28;20044;-87
2021/08/05 12:05:09;;;;;;;6.28;3.97;;;25.40;58.30;;;;;;5081816;28;20048;-89
2021/08/05 12:07:38;;;;;;;5.10;3.28;;;25.40;57.80;;;;;;5087300;28;20044;-87
2021/08/05 12:10:06;;;;;;;5.15;2.92;;;25.40;57.00;;;;;;5089235;28;20048;-87
2021/08/05 12:12:43;;;;;;;9.45;3.50;;;25.40;56.20;;;;;;5080331;28;20059;-87
2021/08/05 12:15:13;;;;;;;9.20;3.10;;;25.30;56.80;;;;;;5090227;28;20442;-85
2021/08/05 12:17:46;;;;;;;11.18;4.13;;;25.20;57.20;;;;;;5109529;27;20156;-86
2021/08/05 12:20:45;;;;;;;8.68;3.63;;;25.00;57.60;;;;;;5106219;28;20059;-86
2021/08/05 12:23:25;;;;;;;8.77;3.50;;;25.00;58.20;;;;;;5075108;28;20056;-87
2021/08/05 12:26:40;;;;;;;6.18;3.05;;;24.90;58.20;;;;;;5074791;28;20061;-87
2021/08/05 12:28:44;;;;;;;12.38;3.30;;;24.80;58.60;;;;;;5066908;28;20041;-87
2021/08/05 12:31:17;;;;;;;10.32;3.03;;;24.80;58.70;;;;;;5082283;28;20048;-87
2021/08/05 12:33:45;;;;;;;5.80;2.97;;;24.90;59.00;;;;;;5090334;28;20044;-87
2021/08/05 12:36:19;;;;;;;6.90;2.38;;;24.90;58.40;;;;;;5076025;28;20072;-87
2021/08/05 12:38:54;;;;;;;7.85;2.60;;;24.90;58.30;;;;;;5086863;28;20426;-86
2021/08/05 12:41:39;;;;;;;4.30;2.30;;;25.00;58.10;;;;;;5078659;28;20804;-88
2021/08/05 12:44:26;;;;;;;6.38;2.33;;;25.00;57.00;;;;;;5074060;28;20436;-87